createdAt,value
2023-05-04T00:00:47.458Z,10.04
2023-05-04T00:03:15.700Z,10.04
2023-05-04T00:05:43.715Z,9.92
2023-05-04T00:08:12.836Z,9.97
2023-05-04T00:10:40.507Z,9.98
2023-05-04T00:13:08.244Z,9.89
2023-05-04T00:15:36.052Z,9.89
2023-05-04T00:18:03.884Z,9.85
2023-05-04T00:20:31.718Z,9.81
2023-05-04T00:22:59.419Z,9.78
2023-05-04T00:25:28.547Z,9.76
2023-05-04T00:27:56.230Z,9.84
2023-05-04T00:30:24.028Z,9.78
2023-05-04T00:32:51.787Z,9.75
2023-05-04T00:35:19.723Z,9.64
2023-05-04T00:37:47.484Z,9.70
2023-05-04T00:40:15.616Z,9.66
2023-05-04T00:42:44.670Z,9.59
2023-05-04T00:45:13.455Z,9.53
2023-05-04T00:47:42.001Z,9.58
2023-05-04T00:50:11.227Z,9.31
2023-05-04T00:52:40.901Z,9.18
2023-05-04T00:55:09.586Z,9.11
2023-05-04T00:57:37.805Z,9.11
2023-05-04T01:00:08.784Z,9.08
2023-05-04T01:02:36.490Z,9.04
2023-05-04T01:05:04.453Z,8.93
2023-05-04T01:07:40.829Z,8.78
2023-05-04T01:10:14.748Z,8.78
2023-05-04T01:12:45.859Z,8.83
2023-05-04T01:15:15.596Z,8.84
2023-05-04T01:17:43.464Z,8.80
2023-05-04T01:20:11.732Z,8.78
2023-05-04T01:22:41.160Z,8.70
2023-05-04T01:25:10.105Z,8.69
2023-05-04T01:27:45.990Z,8.50
2023-05-04T01:30:18.414Z,8.64
2023-05-04T01:32:47.340Z,8.64
2023-05-04T01:35:19.359Z,8.68
2023-05-04T01:37:48.485Z,8.67
2023-05-04T01:40:16.368Z,8.48
2023-05-04T01:42:46.202Z,8.59
2023-05-04T01:45:14.522Z,8.53
2023-05-04T01:47:43.476Z,8.59
2023-05-04T01:50:15.257Z,8.68
2023-05-04T01:52:43.175Z,8.55
2023-05-04T01:55:17.494Z,8.61
2023-05-04T01:57:45.215Z,8.60
2023-05-04T02:00:13.899Z,8.56
2023-05-04T02:02:41.677Z,8.54
2023-05-04T02:05:10.290Z,8.53
2023-05-04T02:07:37.967Z,8.53
2023-05-04T02:10:06.370Z,8.46
2023-05-04T02:12:35.869Z,8.42
2023-05-04T02:15:04.023Z,8.39
2023-05-04T02:17:31.875Z,8.33
2023-05-04T02:19:59.547Z,8.15
2023-05-04T02:22:27.262Z,8.28
2023-05-04T02:24:55.079Z,8.17
2023-05-04T02:27:22.761Z,8.23
2023-05-04T02:29:52.105Z,8.13
2023-05-04T02:32:20.191Z,8.12
2023-05-04T02:34:47.987Z,8.16
2023-05-04T02:37:16.430Z,8.18
2023-05-04T02:39:44.155Z,8.09
2023-05-04T02:42:12.154Z,8.10
2023-05-04T02:44:39.904Z,8.08
2023-05-04T02:47:09.527Z,8.06
2023-05-04T02:49:37.258Z,7.99
2023-05-04T02:52:05.544Z,8.01
2023-05-04T02:54:33.307Z,7.95
2023-05-04T02:57:01.131Z,7.89
2023-05-04T02:59:28.932Z,7.85
2023-05-04T03:01:56.839Z,7.88
2023-05-04T03:04:26.123Z,7.87
2023-05-04T03:06:53.870Z,7.88
2023-05-04T03:09:21.735Z,7.88
2023-05-04T03:11:49.508Z,7.95
2023-05-04T03:14:17.295Z,7.94
2023-05-04T03:16:45.069Z,7.91
2023-05-04T03:19:12.713Z,7.97
2023-05-04T03:21:43.033Z,7.92
2023-05-04T03:24:11.417Z,7.87
2023-05-04T03:26:39.348Z,7.92
2023-05-04T03:29:07.056Z,7.92
2023-05-04T03:31:34.942Z,7.85
2023-05-04T03:34:03.393Z,7.94
2023-05-04T03:36:31.117Z,7.90
2023-05-04T03:39:00.305Z,7.85
2023-05-04T03:41:28.018Z,7.74
2023-05-04T03:43:55.717Z,7.75
2023-05-04T03:46:23.609Z,7.85
2023-05-04T03:48:51.300Z,7.73
2023-05-04T03:51:19.044Z,7.89
2023-05-04T03:53:46.943Z,7.77
2023-05-04T03:56:15.984Z,7.81
2023-05-04T03:58:43.821Z,7.92
2023-05-04T04:01:11.504Z,7.79
2023-05-04T04:03:39.306Z,7.92
2023-05-04T04:06:09.803Z,7.92
2023-05-04T04:08:37.537Z,7.88
2023-05-04T04:11:05.625Z,7.93
2023-05-04T04:13:34.840Z,7.89
2023-05-04T04:16:02.594Z,7.77
2023-05-04T04:18:30.387Z,7.83
2023-05-04T04:20:58.196Z,7.74
2023-05-04T04:23:26.218Z,7.78
2023-05-04T04:25:54.158Z,7.91
2023-05-04T04:28:22.223Z,8.01
2023-05-04T04:30:51.578Z,8.09
2023-05-04T04:33:19.335Z,8.16
2023-05-04T04:35:48.202Z,8.12
2023-05-04T04:38:16.176Z,8.11
2023-05-04T04:40:43.880Z,7.96
2023-05-04T04:43:11.971Z,7.94
2023-05-04T04:45:41.233Z,7.91
2023-05-04T04:48:11.487Z,7.97
2023-05-04T04:50:40.313Z,7.99
2023-05-04T04:53:08.205Z,7.91
2023-05-04T04:55:36.018Z,7.99
2023-05-04T04:58:03.874Z,8.06
2023-05-04T05:00:31.843Z,8.07
2023-05-04T05:03:00.148Z,8.07
2023-05-04T05:05:31.743Z,8.14
2023-05-04T05:08:00.001Z,8.06
2023-05-04T05:10:28.476Z,8.15
2023-05-04T05:12:56.232Z,8.48
2023-05-04T05:15:24.236Z,8.56
2023-05-04T05:17:52.635Z,8.57
2023-05-04T05:20:25.600Z,8.71
2023-05-04T05:22:55.629Z,8.84
2023-05-04T05:25:23.404Z,8.86
2023-05-04T05:27:51.209Z,8.82
2023-05-04T05:30:19.053Z,8.98
2023-05-04T05:32:49.376Z,8.91
2023-05-04T05:35:17.356Z,8.94
2023-05-04T05:37:45.378Z,9.05
2023-05-04T05:40:15.293Z,9.33
2023-05-04T05:42:44.008Z,9.38
2023-05-04T05:45:12.718Z,9.58
2023-05-04T05:47:40.599Z,9.34
2023-05-04T05:50:10.365Z,9.47
2023-05-04T05:52:38.321Z,9.57
2023-05-04T05:55:07.060Z,9.71
2023-05-04T05:57:36.213Z,9.75
2023-05-04T06:00:05.215Z,9.93
2023-05-04T06:02:33.235Z,9.94
2023-05-04T06:05:01.223Z,9.91
2023-05-04T06:07:29.093Z,10.18
2023-05-04T06:09:57.179Z,10.36
2023-05-04T06:12:24.955Z,10.56
2023-05-04T06:14:54.146Z,10.73
2023-05-04T06:17:21.938Z,10.79
2023-05-04T06:19:51.211Z,10.91
2023-05-04T06:22:19.231Z,11.27
2023-05-04T06:24:47.080Z,11.50
2023-05-04T06:27:14.928Z,11.49
2023-05-04T06:29:42.667Z,11.24
2023-05-04T06:32:12.232Z,11.50
2023-05-04T06:34:40.032Z,11.44
2023-05-04T06:37:07.913Z,11.87
2023-05-04T06:39:35.674Z,11.94
2023-05-04T06:42:03.555Z,12.04
2023-05-04T06:44:31.252Z,12.15
2023-05-04T06:46:59.105Z,12.47
2023-05-04T06:49:31.773Z,12.63
2023-05-04T06:51:59.890Z,13.14
2023-05-04T06:54:28.106Z,13.35
2023-05-04T06:56:56.167Z,13.56
2023-05-04T06:59:24.038Z,14.34
2023-05-04T07:01:51.774Z,15.87
2023-05-04T07:04:23.148Z,16.68
2023-05-04T07:06:52.657Z,17.52
2023-05-04T07:09:21.463Z,18.29
2023-05-04T07:11:49.610Z,19.03
2023-05-04T07:14:17.525Z,21.19
2023-05-04T07:16:45.249Z,22.16
2023-05-04T07:19:13.211Z,21.95
2023-05-04T07:21:41.500Z,21.56
2023-05-04T07:24:11.332Z,24.56
2023-05-04T07:26:39.120Z,23.09
2023-05-04T07:29:06.814Z,24.12
2023-05-04T07:31:36.000Z,26.59
2023-05-04T07:34:03.790Z,26.57
2023-05-04T07:36:31.952Z,26.77
2023-05-04T07:39:00.008Z,26.53
2023-05-04T07:41:29.074Z,27.00
2023-05-04T07:43:57.099Z,27.11
2023-05-04T07:46:24.846Z,25.38
2023-05-04T07:48:52.691Z,22.20
2023-05-04T07:51:20.568Z,22.50
2023-05-04T07:53:48.344Z,22.28
2023-05-04T07:56:16.063Z,23.59
2023-05-04T07:58:45.939Z,22.26
2023-05-04T08:01:13.688Z,22.99
2023-05-04T08:03:41.591Z,23.35
2023-05-04T08:06:09.848Z,24.23
2023-05-04T08:08:37.834Z,24.55
2023-05-04T08:11:19.441Z,24.44
2023-05-04T08:13:51.053Z,22.88
2023-05-04T08:16:21.531Z,22.40
2023-05-04T08:18:49.383Z,23.48
2023-05-04T08:21:17.168Z,21.53
2023-05-04T08:23:44.850Z,23.80
2023-05-04T08:26:12.670Z,25.93
2023-05-04T08:28:42.168Z,24.49
2023-05-04T08:31:11.290Z,24.19
2023-05-04T08:33:40.269Z,22.97
2023-05-04T08:36:12.561Z,24.95
2023-05-04T08:38:40.631Z,26.92
2023-05-04T08:41:09.075Z,24.34
2023-05-04T08:43:37.640Z,25.77
2023-05-04T08:46:05.586Z,23.99
2023-05-04T08:48:35.266Z,25.96
2023-05-04T08:51:04.410Z,24.81
2023-05-04T08:53:33.552Z,25.09
2023-05-04T08:56:04.529Z,24.13
2023-05-04T08:58:37.921Z,24.50
2023-05-04T09:01:08.393Z,26.11
2023-05-04T09:03:38.463Z,22.27
2023-05-04T09:06:09.406Z,24.60
2023-05-04T09:08:37.325Z,25.84
2023-05-04T09:11:05.912Z,26.11
2023-05-04T09:13:34.094Z,24.34
2023-05-04T09:16:04.004Z,25.13
2023-05-04T09:18:40.601Z,24.38
2023-05-04T09:21:09.354Z,24.59
2023-05-04T09:23:47.604Z,23.19
2023-05-04T09:26:15.545Z,24.27
2023-05-04T09:28:43.770Z,23.29
2023-05-04T09:31:11.976Z,25.45
2023-05-04T09:33:41.602Z,25.26
2023-05-04T09:36:16.440Z,26.01
2023-05-04T09:38:44.704Z,25.15
2023-05-04T09:41:12.625Z,25.27
2023-05-04T09:43:41.780Z,23.95
2023-05-04T09:46:18.185Z,26.67
2023-05-04T09:48:55.085Z,26.78
2023-05-04T09:51:25.551Z,24.90
2023-05-04T09:53:53.995Z,26.46
2023-05-04T09:56:43.473Z,26.24
2023-05-04T09:59:11.977Z,28.21
2023-05-04T10:01:39.904Z,26.49
2023-05-04T10:04:09.000Z,26.02
2023-05-04T10:06:37.713Z,24.77
2023-05-04T10:09:05.711Z,24.23
2023-05-04T10:11:33.744Z,25.78
2023-05-04T10:14:01.680Z,25.28
2023-05-04T10:16:37.696Z,25.35
2023-05-04T10:19:23.894Z,23.55
2023-05-04T10:22:05.953Z,24.26
2023-05-04T10:25:06.651Z,22.53
2023-05-04T10:27:47.457Z,23.72
2023-05-04T10:30:18.575Z,22.15
2023-05-04T10:32:46.705Z,22.52
2023-05-04T10:35:18.705Z,22.78
2023-05-04T10:37:54.416Z,23.72
2023-05-04T10:40:35.383Z,22.86
2023-05-04T10:43:03.537Z,22.38
2023-05-04T10:45:38.879Z,23.48
2023-05-04T10:48:07.960Z,22.62
2023-05-04T10:50:55.027Z,23.90
2023-05-04T10:53:33.194Z,22.98
2023-05-04T10:56:01.329Z,22.98
2023-05-04T10:58:30.301Z,23.72
2023-05-04T11:00:58.121Z,23.67
2023-05-04T11:03:27.008Z,23.32
2023-05-04T11:05:56.507Z,23.21
2023-05-04T11:08:25.944Z,23.26
2023-05-04T11:11:02.417Z,23.65
2023-05-04T11:13:31.115Z,23.58
2023-05-04T11:15:58.959Z,22.26
2023-05-04T11:18:30.855Z,23.26
2023-05-04T11:21:00.408Z,23.30
2023-05-04T11:23:29.050Z,24.05
2023-05-04T11:25:56.995Z,24.34
2023-05-04T11:28:33.341Z,24.75
2023-05-04T11:31:01.440Z,23.22
2023-05-04T11:33:31.552Z,23.42
2023-05-04T11:36:04.066Z,23.00
2023-05-04T11:38:33.267Z,22.25
2023-05-04T11:41:02.568Z,21.94
2023-05-04T11:43:31.021Z,22.61
2023-05-04T11:46:00.963Z,22.77
2023-05-04T11:48:29.238Z,23.48
2023-05-04T11:50:57.936Z,23.05
2023-05-04T11:53:27.260Z,23.05
2023-05-04T11:55:56.577Z,22.91
2023-05-04T11:58:28.052Z,22.43
2023-05-04T12:00:57.868Z,23.13
2023-05-04T12:03:30.194Z,23.45
2023-05-04T12:06:03.922Z,22.91
2023-05-04T12:08:34.663Z,22.43
2023-05-04T12:11:16.484Z,22.56
2023-05-04T12:13:45.808Z,22.30
2023-05-04T12:16:15.808Z,22.21
2023-05-04T12:18:45.411Z,22.38
2023-05-04T12:21:15.582Z,22.81
2023-05-04T12:23:45.313Z,23.14
2023-05-04T12:26:14.386Z,23.16
2023-05-04T12:28:43.622Z,23.42
2023-05-04T12:31:11.357Z,23.15
2023-05-04T12:33:39.533Z,22.84
2023-05-04T12:36:08.638Z,21.96
2023-05-04T12:38:37.535Z,22.23
2023-05-04T12:41:10.909Z,21.74
2023-05-04T12:43:39.208Z,22.16
2023-05-04T12:46:07.220Z,22.21
2023-05-04T12:48:35.007Z,22.39
2023-05-04T12:51:04.156Z,21.44
2023-05-04T12:53:33.024Z,21.56
2023-05-04T12:56:03.575Z,21.68
2023-05-04T12:58:32.788Z,21.46
2023-05-04T13:01:00.799Z,21.72
2023-05-04T13:03:28.745Z,21.84
2023-05-04T13:05:57.923Z,21.86
2023-05-04T13:08:25.801Z,22.17
2023-05-04T13:10:53.531Z,22.21
2023-05-04T13:13:24.487Z,21.88
2023-05-04T13:15:53.787Z,22.29
2023-05-04T13:18:26.775Z,22.35
2023-05-04T13:20:55.051Z,22.02
2023-05-04T13:23:22.901Z,21.91
2023-05-04T13:25:51.388Z,22.51
2023-05-04T13:28:20.242Z,21.95
2023-05-04T13:30:48.278Z,21.88
2023-05-04T13:33:28.716Z,21.46
2023-05-04T13:35:58.149Z,21.41
2023-05-04T13:38:26.253Z,21.35
2023-05-04T13:40:54.004Z,21.71
2023-05-04T13:43:23.182Z,21.73
2023-05-04T13:45:51.450Z,21.92
2023-05-04T13:48:20.567Z,21.87
2023-05-04T13:50:48.315Z,22.09
2023-05-04T13:53:16.064Z,22.06
2023-05-04T13:55:43.826Z,21.66
2023-05-04T13:58:11.659Z,21.88
2023-05-04T14:00:39.481Z,21.68
2023-05-04T14:03:07.473Z,21.89
2023-05-04T14:05:36.640Z,21.93
2023-05-04T14:08:04.583Z,21.48
2023-05-04T14:10:32.947Z,21.84
2023-05-04T14:13:01.237Z,22.14
2023-05-04T14:15:28.909Z,22.15
2023-05-04T14:17:56.630Z,22.27
2023-05-04T14:20:24.415Z,22.35
2023-05-04T14:22:53.730Z,21.78
2023-05-04T14:25:22.444Z,21.99
2023-05-04T14:27:50.191Z,22.28
2023-05-04T14:30:18.174Z,22.18
2023-05-04T14:32:46.300Z,22.33
2023-05-04T14:35:15.720Z,22.21
2023-05-04T14:37:45.424Z,22.28
2023-05-04T14:40:15.766Z,21.78
2023-05-04T14:42:47.342Z,21.80
2023-05-04T14:45:19.987Z,21.91
2023-05-04T14:47:50.436Z,21.79
2023-05-04T14:50:18.957Z,21.70
2023-05-04T14:52:48.770Z,21.99
2023-05-04T14:55:19.682Z,21.90
2023-05-04T14:57:51.113Z,21.75
2023-05-04T15:00:21.422Z,21.78
2023-05-04T15:02:54.902Z,21.77
2023-05-04T15:05:22.924Z,21.95
2023-05-04T15:07:51.904Z,21.73
2023-05-04T15:10:22.958Z,21.67
2023-05-04T15:12:54.127Z,21.59
2023-05-04T15:15:22.816Z,21.68
2023-05-04T15:17:53.063Z,21.45
2023-05-04T15:20:24.000Z,21.61
2023-05-04T15:22:56.413Z,21.43
2023-05-04T15:25:28.728Z,21.42
2023-05-04T15:27:59.300Z,21.46
2023-05-04T15:30:32.984Z,21.63
2023-05-04T15:33:01.048Z,21.45
2023-05-04T15:35:30.307Z,21.42
2023-05-04T15:38:02.558Z,21.32
2023-05-04T15:40:33.149Z,21.34
2023-05-04T15:43:02.354Z,21.48
2023-05-04T15:45:38.155Z,21.53
2023-05-04T15:48:10.021Z,21.30
2023-05-04T15:50:39.336Z,21.18
2023-05-04T15:53:08.995Z,21.25
2023-05-04T15:55:38.858Z,21.20
2023-05-04T15:58:10.283Z,21.21
2023-05-04T16:00:42.461Z,21.10
2023-05-04T16:03:11.411Z,21.10
2023-05-04T16:05:40.651Z,21.21
2023-05-04T16:08:10.199Z,21.26
2023-05-04T16:10:40.432Z,21.39
2023-05-04T16:13:11.928Z,21.30
2023-05-04T16:15:43.740Z,21.30
2023-05-04T16:18:11.736Z,21.21
2023-05-04T16:20:41.973Z,21.34
2023-05-04T16:23:18.160Z,21.23
2023-05-04T16:25:49.155Z,21.46
2023-05-04T16:28:18.384Z,21.26
2023-05-04T16:30:49.908Z,21.12
2023-05-04T16:33:18.506Z,21.18
2023-05-04T16:35:46.669Z,21.02
2023-05-04T16:38:18.540Z,21.19
2023-05-04T16:40:49.892Z,21.05
2023-05-04T16:43:18.944Z,20.98
2023-05-04T16:45:49.451Z,20.85
2023-05-04T16:48:18.558Z,20.91
2023-05-04T16:50:50.994Z,20.83
2023-05-04T16:53:18.859Z,20.65
2023-05-04T16:55:52.601Z,20.71
2023-05-04T16:58:22.478Z,20.74
2023-05-04T17:00:50.248Z,20.71
2023-05-04T17:03:21.241Z,20.63
2023-05-04T17:05:50.049Z,20.58
2023-05-04T17:08:19.938Z,20.48
2023-05-04T17:10:50.188Z,20.45
2023-05-04T17:13:21.153Z,20.45
2023-05-04T17:15:49.720Z,20.43
2023-05-04T17:18:24.429Z,20.51
2023-05-04T17:20:52.634Z,20.43
2023-05-04T17:23:20.543Z,20.37
2023-05-04T17:25:50.199Z,20.35
2023-05-04T17:28:20.419Z,20.28
2023-05-04T17:30:49.491Z,20.33
2023-05-04T17:33:20.283Z,20.19
2023-05-04T17:35:51.771Z,20.16
2023-05-04T17:38:28.617Z,20.17
2023-05-04T17:40:57.386Z,20.22
2023-05-04T17:43:30.957Z,20.12
2023-05-04T17:46:03.203Z,20.03
2023-05-04T17:48:32.314Z,20.04
2023-05-04T17:51:00.633Z,20.00
2023-05-04T17:53:30.334Z,19.92
2023-05-04T17:55:58.539Z,19.86
2023-05-04T17:58:29.934Z,19.92
2023-05-04T18:00:59.295Z,19.79
2023-05-04T18:03:27.770Z,19.70
2023-05-04T18:05:57.063Z,19.71
2023-05-04T18:08:29.632Z,19.62
2023-05-04T18:10:58.119Z,19.59
2023-05-04T18:13:31.505Z,19.56
2023-05-04T18:16:00.186Z,19.53
2023-05-04T18:18:28.703Z,19.45
2023-05-04T18:21:02.315Z,19.36
2023-05-04T18:23:30.509Z,19.34
2023-05-04T18:25:58.330Z,19.27
2023-05-04T18:28:27.977Z,19.24
2023-05-04T18:31:01.308Z,19.23
2023-05-04T18:33:29.083Z,19.11
2023-05-04T18:35:56.846Z,19.12
2023-05-04T18:38:26.380Z,19.04
2023-05-04T18:41:07.601Z,18.96
2023-05-04T18:43:38.554Z,18.94
2023-05-04T18:46:12.148Z,18.85
2023-05-04T18:48:43.751Z,18.82
2023-05-04T18:51:14.399Z,18.81
2023-05-04T18:53:42.531Z,18.72
2023-05-04T18:56:13.899Z,18.63
2023-05-04T18:58:50.942Z,18.67
2023-05-04T19:01:19.879Z,18.61
2023-05-04T19:03:48.414Z,18.54
2023-05-04T19:06:19.015Z,18.55
2023-05-04T19:08:52.127Z,18.42
2023-05-04T19:11:20.566Z,18.40
2023-05-04T19:13:51.568Z,18.30
2023-05-04T19:16:26.113Z,18.24
2023-05-04T19:18:54.248Z,18.23
2023-05-04T19:21:23.606Z,18.20
2023-05-04T19:23:59.160Z,18.05
2023-05-04T19:26:28.614Z,18.04
2023-05-04T19:31:41.791Z,17.94
2023-05-04T19:34:10.368Z,17.87
2023-05-04T19:36:39.011Z,17.80
2023-05-04T19:39:21.861Z,17.75
2023-05-04T19:41:50.501Z,17.64
2023-05-04T19:44:20.973Z,17.57
2023-05-04T19:46:51.858Z,17.57
2023-05-04T19:49:23.342Z,17.49
2023-05-04T19:51:52.195Z,17.41
2023-05-04T19:54:20.808Z,17.32
2023-05-04T19:56:48.884Z,17.30
2023-05-04T19:59:20.153Z,17.25
2023-05-04T20:01:55.294Z,17.22
2023-05-04T20:04:23.424Z,17.17
2023-05-04T20:06:52.014Z,17.08
2023-05-04T20:09:23.724Z,17.11
2023-05-04T20:11:56.047Z,17.10
2023-05-04T20:14:25.632Z,17.08
2023-05-04T20:16:58.377Z,17.03
2023-05-04T20:19:27.810Z,16.98
2023-05-04T20:21:58.526Z,16.94
2023-05-04T20:24:28.484Z,16.85
2023-05-04T20:26:56.821Z,16.77
2023-05-04T20:29:25.824Z,16.83
2023-05-04T20:31:56.167Z,16.72
2023-05-04T20:34:26.437Z,16.75
2023-05-04T20:36:55.865Z,16.68
2023-05-04T20:39:24.654Z,16.49
2023-05-04T20:41:56.518Z,16.50
2023-05-04T20:44:27.837Z,16.46
2023-05-04T20:46:59.094Z,16.46
2023-05-04T20:49:28.342Z,16.47
2023-05-04T20:51:58.207Z,16.38
2023-05-04T20:54:27.864Z,16.34
2023-05-04T20:56:56.371Z,16.25
2023-05-04T20:59:25.751Z,16.38
2023-05-04T21:01:53.959Z,16.20
2023-05-04T21:04:23.159Z,16.09
2023-05-04T21:06:53.161Z,15.97
2023-05-04T21:09:21.972Z,15.85
2023-05-04T21:11:50.820Z,15.71
2023-05-04T21:14:20.127Z,15.51
2023-05-04T21:16:48.150Z,15.52
2023-05-04T21:19:16.555Z,15.42
2023-05-04T21:21:46.365Z,15.30
2023-05-04T21:24:16.551Z,15.22
2023-05-04T21:26:45.945Z,15.17
2023-05-04T21:29:14.084Z,15.09
2023-05-04T21:31:44.175Z,15.16
2023-05-04T21:34:14.518Z,15.17
2023-05-04T21:36:44.901Z,15.14
2023-05-04T21:39:22.623Z,15.02
2023-05-04T21:41:51.553Z,14.90
2023-05-04T21:44:19.693Z,14.91
2023-05-04T21:46:47.996Z,14.91
2023-05-04T21:49:15.733Z,14.78
2023-05-04T21:51:47.627Z,14.72
2023-05-04T21:54:16.676Z,14.71
2023-05-04T21:56:46.878Z,14.58
2023-05-04T21:59:17.052Z,14.45
2023-05-04T22:01:46.113Z,14.42
2023-05-04T22:04:13.849Z,14.44
2023-05-04T22:06:42.994Z,14.33
2023-05-04T22:09:12.656Z,14.24
2023-05-04T22:11:42.258Z,14.04
2023-05-04T22:14:11.155Z,13.96
2023-05-04T22:16:43.844Z,13.91
2023-05-04T22:19:13.084Z,13.79
2023-05-04T22:21:40.821Z,13.78
2023-05-04T22:24:09.362Z,13.80
2023-05-04T22:26:41.080Z,13.76
2023-05-04T22:29:13.761Z,13.68
2023-05-04T22:31:43.371Z,13.62
2023-05-04T22:34:12.853Z,13.58
2023-05-04T22:36:41.160Z,13.59
2023-05-04T22:39:15.696Z,13.33
2023-05-04T22:41:47.901Z,13.30
2023-05-04T22:44:17.160Z,13.26
2023-05-04T22:46:45.556Z,13.18
2023-05-04T22:49:16.434Z,13.14
2023-05-04T22:52:05.627Z,13.13
2023-05-04T22:54:41.368Z,12.96
2023-05-04T22:57:37.286Z,12.85
2023-05-04T23:00:28.981Z,12.78
2023-05-04T23:03:27.084Z,12.84
2023-05-04T23:06:05.533Z,12.76
2023-05-04T23:08:40.879Z,12.77
2023-05-04T23:16:27.134Z,12.62
2023-05-04T23:18:54.885Z,12.64
2023-05-04T23:21:23.130Z,12.59
2023-05-04T23:23:52.281Z,12.50
2023-05-04T23:26:20.029Z,12.45
2023-05-04T23:28:47.770Z,12.45
2023-05-04T23:31:16.145Z,12.32
2023-05-04T23:33:45.395Z,12.07
2023-05-04T23:36:13.074Z,12.06
2023-05-04T23:38:41.617Z,12.09
2023-05-04T23:41:09.268Z,12.15
2023-05-04T23:43:37.335Z,12.17
2023-05-04T23:46:06.525Z,12.16
2023-05-04T23:48:34.187Z,12.13
2023-05-04T23:51:04.735Z,11.99
2023-05-04T23:53:33.632Z,11.98
2023-05-04T23:56:03.985Z,11.99
2023-05-04T23:58:33.248Z,11.94
